Time;durP1;ratioP1;P1;durP2;ratioP2;P2;SDS_P1;SDS_P2;PMS_P1;PMS_P2;Temp;Humidity;BMP_temperature;BMP_pressure;BME280_temperature;BME280_humidity;BME280_pressure;Samples;Min_cycle;Max_cycle;Signal;HPM_P1;HPM_P2
2022/09/24 00:01:11;;;;;;;;;;;16.20;71.80;;;;;;6139828;23;19905;-79
2022/09/24 00:03:44;;;;;;;;;;;16.10;72.30;;;;;;6135068;23;19931;-80
2022/09/24 00:06:14;;;;;;;;;;;16.00;72.20;;;;;;6136627;23;19929;-80
2022/09/24 00:08:41;;;;;;;;;;;16.00;72.10;;;;;;6134256;23;19921;-79
2022/09/24 00:11:10;;;;;;;;;;;16.00;72.70;;;;;;6131594;23;19924;-79
2022/09/24 00:13:37;;;;;;;;;;;16.00;73.00;;;;;;6133145;23;19917;-77
2022/09/24 00:16:06;;;;;;;;;;;16.00;72.70;;;;;;6132687;23;20437;-79
2022/09/24 00:18:33;;;;;;;;;;;16.00;73.20;;;;;;6134080;23;20302;-79
2022/09/24 00:21:09;;;;;;;;;;;16.10;72.40;;;;;;6133415;23;19932;-79
2022/09/24 00:23:36;;;;;;;;;;;16.10;72.10;;;;;;6136653;23;19921;-80
2022/09/24 00:28:49;;;;;;;;;;;16.10;71.20;;;;;;6111693;23;20291;-78
2022/09/24 00:31:15;;;;;;;;;;;16.10;69.40;;;;;;6137437;23;19917;-79
2022/09/24 00:33:42;;;;;;;;;;;16.20;66.60;;;;;;6136921;23;19954;-79
2022/09/24 00:36:09;;;;;;;;;;;16.20;65.90;;;;;;6134849;23;19940;-80
2022/09/24 00:38:36;;;;;;;;;;;16.20;65.60;;;;;;6135061;23;19921;-81
2022/09/24 00:41:03;;;;;;;;;;;16.20;66.20;;;;;;6132983;23;19924;-80
2022/09/24 00:43:35;;;;;;;;;;;16.20;66.40;;;;;;6115066;23;19933;-79
2022/09/24 00:46:14;;;;;;;;;;;16.20;66.70;;;;;;6112803;23;19926;-80
2022/09/24 00:48:42;;;;;;;;;;;16.20;65.50;;;;;;6138200;23;19968;-80
2022/09/24 00:51:12;;;;;;;;;;;16.20;65.20;;;;;;6139781;23;19917;-78
2022/09/24 00:53:40;;;;;;;;;;;16.20;65.10;;;;;;6139905;23;19917;-79
2022/09/24 00:56:09;;;;;;;;;;;16.20;66.70;;;;;;6142039;23;19928;-80
2022/09/24 00:58:35;;;;;;;;;;;16.20;68.20;;;;;;6143364;23;19932;-78
2022/09/24 01:01:04;;;;;;;;;;;16.20;68.80;;;;;;6142842;23;19929;-79
2022/09/24 01:03:32;;;;;;;;;;;16.10;69.20;;;;;;6143439;23;19961;-81
2022/09/24 01:05:59;;;;;;;;;;;16.10;69.80;;;;;;6141979;23;19916;-79
2022/09/24 01:08:26;;;;;;;;;;;16.10;69.90;;;;;;6143687;23;19905;-80
2022/09/24 01:11:12;;;;;;;;;;;16.10;69.80;;;;;;6119926;23;20253;-79
2022/09/24 01:13:53;;;;;;;;;;;16.10;69.50;;;;;;6143417;23;19943;-80
2022/09/24 01:16:31;;;;;;;;;;;16.10;69.50;;;;;;6142219;23;19917;-79
2022/09/24 01:19:14;;;;;;;;;;;16.10;69.40;;;;;;6141969;23;19941;-81
2022/09/24 01:21:48;;;;;;;;;;;16.10;67.40;;;;;;6118728;23;19912;-80
2022/09/24 01:24:27;;;;;;;;;;;16.10;66.80;;;;;;6143128;23;19924;-79
2022/09/24 01:27:06;;;;;;;;;;;16.10;66.60;;;;;;6143732;23;20309;-78
2022/09/24 01:29:40;;;;;;;;;;;16.10;68.70;;;;;;6088855;23;19937;-79
2022/09/24 01:32:10;;;;;;;;;;;16.10;68.90;;;;;;6083547;23;20417;-79
2022/09/24 01:34:46;;;;;;;;;;;16.00;71.50;;;;;;6095513;23;19957;-78
2022/09/24 01:37:14;;;;;;;;;;;16.00;71.60;;;;;;6127129;23;19917;-80
2022/09/24 01:39:42;;;;;;;;;;;15.90;73.30;;;;;;6138302;23;19936;-79
2022/09/24 01:42:09;;;;;;;;;;;15.80;73.50;;;;;;6139325;23;19917;-79
2022/09/24 01:44:37;;;;;;;;;;;15.80;72.70;;;;;;6136540;23;19921;-79
2022/09/24 01:47:05;;;;;;;;;;;15.80;73.50;;;;;;6135744;23;19945;-79
2022/09/24 01:49:32;;;;;;;;;;;15.70;74.10;;;;;;6131052;23;19918;-79
2022/09/24 01:52:02;;;;;;;;;;;15.70;74.30;;;;;;6136536;23;19962;-80
2022/09/24 01:54:34;;;;;;;;;;;15.70;74.40;;;;;;6136953;23;19917;-78
2022/09/24 01:57:24;;;;;;;;;;;15.60;78.40;;;;;;6139924;23;19921;-79
2022/09/24 02:00:09;;;;;;;;;;;15.60;77.80;;;;;;6107816;23;19949;-79
2022/09/24 02:02:39;;;;;;;;;;;15.50;77.80;;;;;;6137107;23;20261;-79
2022/09/24 02:05:13;;;;;;;;;;;15.50;76.90;;;;;;6137301;23;19960;-79
2022/09/24 02:07:49;;;;;;;;;;;15.60;77.40;;;;;;6132373;23;19932;-79
2022/09/24 02:10:17;;;;;;;;;;;15.50;77.20;;;;;;6141544;23;20433;-80
2022/09/24 02:12:45;;;;;;;;;;;15.50;76.90;;;;;;6140679;23;19901;-79
2022/09/24 02:15:20;;;;;;;;;;;15.50;76.70;;;;;;6141861;23;19937;-80
2022/09/24 02:17:51;;;;;;;;;;;15.50;78.00;;;;;;6118699;23;19925;-79
2022/09/24 02:20:19;;;;;;;;;;;15.50;77.20;;;;;;6118406;23;19937;-79
2022/09/24 02:22:48;;;;;;;;;;;15.50;76.70;;;;;;6142040;23;19913;-79
2022/09/24 02:25:17;;;;;;;;;;;15.60;76.50;;;;;;6105942;23;20313;-79
2022/09/24 02:27:44;;;;;;;;;;;15.60;76.80;;;;;;6119652;23;19988;-80
2022/09/24 02:30:10;;;;;;;;;;;15.60;76.90;;;;;;6120178;23;20353;-80
2022/09/24 02:32:39;;;;;;;;;;;15.60;78.10;;;;;;6119607;23;19947;-80
2022/09/24 02:35:07;;;;;;;;;;;15.60;77.50;;;;;;6120462;23;19924;-80
2022/09/24 02:37:39;;;;;;;;;;;15.60;77.90;;;;;;6119808;23;19924;-79
2022/09/24 02:40:06;;;;;;;;;;;15.50;77.50;;;;;;6120284;23;20001;-80
2022/09/24 02:42:34;;;;;;;;;;;15.50;76.80;;;;;;6119574;23;19921;-79
2022/09/24 02:45:01;;;;;;;;;;;15.60;77.40;;;;;;6097686;23;20272;-79
2022/09/24 02:47:28;;;;;;;;;;;15.60;76.80;;;;;;6119923;23;19917;-80
2022/09/24 02:49:57;;;;;;;;;;;15.50;76.50;;;;;;6119693;23;19944;-79
2022/09/24 02:52:24;;;;;;;;;;;15.60;75.90;;;;;;6120042;23;19917;-80
2022/09/24 02:54:50;;;;;;;;;;;15.50;78.40;;;;;;6119275;23;20035;-79
2022/09/24 02:57:17;;;;;;;;;;;15.50;79.50;;;;;;6120109;23;20315;-80
2022/09/24 02:59:44;;;;;;;;;;;15.50;78.80;;;;;;6119400;23;20257;-80
2022/09/24 03:02:11;;;;;;;;;;;15.50;79.40;;;;;;6120077;23;19921;-80
2022/09/24 03:04:38;;;;;;;;;;;15.50;79.80;;;;;;6119206;23;19917;-80
2022/09/24 03:07:05;;;;;;;;;;;15.40;79.70;;;;;;6119764;23;20390;-79
2022/09/24 03:09:31;;;;;;;;;;;15.40;79.80;;;;;;6119060;23;19951;-80
2022/09/24 03:11:59;;;;;;;;;;;15.40;80.80;;;;;;6119734;23;19917;-80
2022/09/24 03:14:26;;;;;;;;;;;15.30;81.30;;;;;;6119897;23;19968;-79
2022/09/24 03:16:53;;;;;;;;;;;15.30;81.30;;;;;;6118793;23;19917;-80
2022/09/24 03:19:19;;;;;;;;;;;15.30;81.90;;;;;;6119662;23;19984;-80
2022/09/24 03:21:46;;;;;;;;;;;15.30;82.30;;;;;;6094891;23;19921;-80
2022/09/24 03:24:13;;;;;;;;;;;15.30;81.70;;;;;;6119643;23;19966;-79
2022/09/24 03:26:40;;;;;;;;;;;15.30;81.80;;;;;;6119107;23;20257;-80
2022/09/24 03:29:07;;;;;;;;;;;15.30;82.10;;;;;;6096938;23;20304;-80
2022/09/24 03:31:34;;;;;;;;;;;15.30;83.20;;;;;;6118866;23;19984;-80
2022/09/24 03:34:01;;;;;;;;;;;15.30;81.90;;;;;;6119845;23;19972;-80
2022/09/24 03:36:28;;;;;;;;;;;15.30;81.50;;;;;;6119683;23;19992;-80
2022/09/24 03:38:55;;;;;;;;;;;15.40;80.80;;;;;;6095855;23;19917;-80
2022/09/24 03:41:23;;;;;;;;;;;15.40;80.30;;;;;;6119611;23;20349;-79
2022/09/24 03:43:50;;;;;;;;;;;15.40;79.90;;;;;;6118573;23;19945;-79
2022/09/24 03:46:17;;;;;;;;;;;15.40;80.90;;;;;;6119713;23;20361;-80
2022/09/24 03:48:46;;;;;;;;;;;15.40;81.10;;;;;;6118965;23;19924;-80
2022/09/24 03:51:14;;;;;;;;;;;15.40;81.20;;;;;;6119477;23;20331;-80
2022/09/24 03:53:41;;;;;;;;;;;15.30;81.60;;;;;;6118740;23;19996;-80
2022/09/24 03:56:08;;;;;;;;;;;15.40;81.10;;;;;;6119423;23;19924;-79
2022/09/24 03:58:36;;;;;;;;;;;15.40;80.70;;;;;;6118943;23;20370;-80
2022/09/24 04:01:07;;;;;;;;;;;15.40;80.90;;;;;;6119475;23;19976;-80
2022/09/24 04:03:35;;;;;;;;;;;15.40;81.70;;;;;;6118534;23;20346;-80
2022/09/24 04:06:02;;;;;;;;;;;15.20;82.40;;;;;;6095251;23;20349;-80
2022/09/24 04:08:30;;;;;;;;;;;15.20;83.00;;;;;;6119586;23;19917;-79
2022/09/24 04:10:57;;;;;;;;;;;15.20;83.50;;;;;;6118292;23;19917;-80
2022/09/24 04:13:24;;;;;;;;;;;15.20;82.70;;;;;;6119223;23;19921;-80
2022/09/24 04:15:52;;;;;;;;;;;15.20;82.30;;;;;;6118383;23;19928;-79
2022/09/24 04:18:19;;;;;;;;;;;15.20;81.80;;;;;;6096408;23;19917;-80
2022/09/24 04:20:46;;;;;;;;;;;15.20;82.40;;;;;;6105880;23;19999;-80
2022/09/24 04:23:13;;;;;;;;;;;15.10;82.80;;;;;;6119655;23;19917;-79
2022/09/24 04:25:39;;;;;;;;;;;15.20;82.20;;;;;;6119361;23;19944;-79
2022/09/24 04:28:07;;;;;;;;;;;15.10;82.40;;;;;;6095681;23;20295;-80
2022/09/24 04:30:33;;;;;;;;;;;15.10;82.40;;;;;;6119308;23;19948;-79
2022/09/24 04:33:01;;;;;;;;;;;15.10;82.50;;;;;;6118494;23;20011;-79
2022/09/24 04:35:29;;;;;;;;;;;15.10;82.30;;;;;;6119117;23;19917;-79
2022/09/24 04:37:56;;;;;;;;;;;15.10;82.30;;;;;;6118221;23;20013;-80
2022/09/24 04:40:23;;;;;;;;;;;15.20;82.00;;;;;;6119521;23;19992;-80
2022/09/24 04:42:49;;;;;;;;;;;15.20;79.60;;;;;;6118169;23;19917;-80
2022/09/24 04:45:18;;;;;;;;;;;15.30;78.80;;;;;;6118957;23;19927;-80
2022/09/24 04:47:54;;;;;;;;;;;15.30;78.90;;;;;;6093754;23;19988;-80
2022/09/24 04:50:22;;;;;;;;;;;15.30;78.50;;;;;;6096090;23;19921;-80
2022/09/24 04:52:49;;;;;;;;;;;15.30;79.30;;;;;;6118112;23;19921;-80
2022/09/24 04:55:16;;;;;;;;;;;15.10;83.20;;;;;;6119052;23;20257;-80
2022/09/24 04:57:44;;;;;;;;;;;15.00;85.80;;;;;;6118832;23;19941;-79
2022/09/24 05:00:14;;;;;;;;;;;15.00;86.50;;;;;;6118530;23;19944;-79
2022/09/24 05:02:41;;;;;;;;;;;15.00;88.00;;;;;;6095929;23;19952;-79
2022/09/24 05:05:08;;;;;;;;;;;14.70;90.20;;;;;;6118027;23;19917;-79
2022/09/24 05:07:35;;;;;;;;;;;14.70;90.20;;;;;;6118801;23;19960;-79
2022/09/24 05:10:02;;;;;;;;;;;14.70;90.00;;;;;;6118463;23;19917;-79
2022/09/24 05:12:28;;;;;;;;;;;14.60;90.50;;;;;;6118689;23;19988;-80
2022/09/24 05:14:55;;;;;;;;;;;14.60;90.60;;;;;;6118519;23;19996;-80
2022/09/24 05:17:22;;;;;;;;;;;14.60;90.60;;;;;;6118807;23;19992;-80
2022/09/24 05:19:48;;;;;;;;;;;14.50;91.50;;;;;;6117743;23;19917;-80
2022/09/24 05:22:15;;;;;;;;;;;14.40;92.10;;;;;;6095001;23;19917;-79
2022/09/24 05:24:42;;;;;;;;;;;14.30;92.50;;;;;;6096064;23;20354;-80
2022/09/24 05:27:09;;;;;;;;;;;14.30;92.20;;;;;;6118267;23;19937;-79
2022/09/24 05:29:42;;;;;;;;;;;14.30;92.00;;;;;;6118928;23;19925;-80
2022/09/24 05:32:10;;;;;;;;;;;14.30;92.10;;;;;;6118171;23;19948;-80
2022/09/24 05:34:36;;;;;;;;;;;14.30;92.40;;;;;;6118446;23;20487;-80
2022/09/24 05:37:03;;;;;;;;;;;14.30;92.40;;;;;;6118033;23;19917;-80
2022/09/24 05:39:30;;;;;;;;;;;14.30;92.30;;;;;;6118787;23;19917;-80
2022/09/24 05:42:03;;;;;;;;;;;14.30;92.00;;;;;;6117463;23;19917;-80
2022/09/24 05:44:30;;;;;;;;;;;14.30;91.90;;;;;;6118321;23;20329;-80
2022/09/24 05:46:57;;;;;;;;;;;14.30;92.60;;;;;;6095084;23;19921;-80
2022/09/24 05:49:25;;;;;;;;;;;14.30;92.50;;;;;;6118296;23;19921;-80
2022/09/24 05:51:51;;;;;;;;;;;14.30;92.50;;;;;;6117762;23;20330;-81
2022/09/24 05:54:18;;;;;;;;;;;14.30;92.90;;;;;;6118494;23;20231;-80
2022/09/24 05:56:45;;;;;;;;;;;14.10;93.00;;;;;;6118614;23;20326;-80
2022/09/24 05:59:12;;;;;;;;;;;14.20;93.40;;;;;;6095981;23;19923;-81
2022/09/24 06:01:38;;;;;;;;;;;14.10;93.30;;;;;;6120712;23;19933;-80
2022/09/24 06:04:09;;;;;;;;;;;14.10;93.50;;;;;;6118917;23;19924;-80
2022/09/24 06:06:35;;;;;;;;;;;14.20;93.20;;;;;;6120834;23;20440;-80
2022/09/24 06:09:02;;;;;;;;;;;14.10;93.60;;;;;;6097188;23;19917;-80
2022/09/24 06:11:35;;;;;;;;;;;14.20;93.00;;;;;;6120675;23;19988;-80
2022/09/24 06:14:07;;;;;;;;;;;14.20;93.80;;;;;;6095271;23;19917;-80
2022/09/24 06:16:34;;;;;;;;;;;14.20;93.70;;;;;;6097517;23;19941;-80
2022/09/24 06:19:01;;;;;;;;;;;14.20;94.10;;;;;;6119986;23;19921;-80
2022/09/24 06:21:28;;;;;;;;;;;14.10;94.40;;;;;;6120055;23;20257;-80
2022/09/24 06:23:55;;;;;;;;;;;14.10;94.40;;;;;;6118999;23;19960;-80
2022/09/24 06:26:24;;;;;;;;;;;14.10;94.10;;;;;;6095946;23;20391;-80
2022/09/24 06:28:51;;;;;;;;;;;14.10;94.70;;;;;;6118904;23;19924;-80
2022/09/24 06:31:18;;;;;;;;;;;14.00;95.20;;;;;;6097040;23;20277;-80
2022/09/24 06:33:45;;;;;;;;;;;14.00;95.20;;;;;;6120261;23;19921;-80
2022/09/24 06:36:13;;;;;;;;;;;14.00;95.50;;;;;;6119277;23;20318;-81
2022/09/24 06:38:40;;;;;;;;;;;14.00;95.60;;;;;;6097236;23;19921;-80
2022/09/24 06:41:06;;;;;;;;;;;14.00;95.20;;;;;;6119500;23;19921;-80
2022/09/24 06:43:34;;;;;;;;;;;14.00;94.80;;;;;;6119899;23;20386;-80
2022/09/24 06:46:00;;;;;;;;;;;14.10;94.80;;;;;;6119618;23;19980;-80
2022/09/24 06:48:27;;;;;;;;;;;14.10;95.00;;;;;;6120593;23;19924;-79
2022/09/24 06:50:55;;;;;;;;;;;14.20;95.40;;;;;;6118729;23;19952;-81
2022/09/24 06:53:22;;;;;;;;;;;14.20;95.20;;;;;;6120077;23;20231;-81
2022/09/24 06:55:49;;;;;;;;;;;14.20;95.30;;;;;;6096976;23;19921;-81
2022/09/24 06:58:21;;;;;;;;;;;14.20;94.90;;;;;;6119044;23;19925;-81
2022/09/24 07:00:57;;;;;;;;;;;14.30;94.80;;;;;;6096721;23;19945;-81
2022/09/24 07:03:25;;;;;;;;;;;14.30;94.70;;;;;;6119210;23;20322;-80
2022/09/24 07:05:52;;;;;;;;;;;14.30;94.80;;;;;;6120098;23;19917;-81
2022/09/24 07:08:19;;;;;;;;;;;14.40;94.70;;;;;;6119089;23;19999;-81
2022/09/24 07:10:48;;;;;;;;;;;14.40;94.60;;;;;;6119637;23;20258;-81
2022/09/24 07:13:15;;;;;;;;;;;14.40;94.30;;;;;;6119127;23;19921;-81
2022/09/24 07:15:42;;;;;;;;;;;14.40;94.20;;;;;;6095277;23;19953;-82
2022/09/24 07:18:09;;;;;;;;;;;14.40;94.10;;;;;;6118675;23;19917;-81
2022/09/24 07:20:36;;;;;;;;;;;14.40;94.40;;;;;;6120245;23;19921;-81
2022/09/24 07:23:04;;;;;;;;;;;14.40;94.50;;;;;;6118230;23;19984;-81
2022/09/24 07:25:31;;;;;;;;;;;14.40;94.20;;;;;;6119656;23;19957;-81
2022/09/24 07:28:02;;;;;;;;;;;14.40;94.10;;;;;;6119691;23;20246;-81
2022/09/24 07:30:29;;;;;;;;;;;14.40;94.30;;;;;;6096059;23;19928;-81
2022/09/24 07:32:55;;;;;;;;;;;14.40;94.30;;;;;;6097203;23;20498;-81
2022/09/24 07:35:22;;;;;;;;;;;14.40;94.60;;;;;;6119119;23;20275;-81
2022/09/24 07:38:00;;;;;;;;;;;14.40;94.60;;;;;;6120240;23;20254;-81
2022/09/24 07:40:27;;;;;;;;;;;14.40;95.00;;;;;;6118718;23;19993;-81
2022/09/24 07:42:54;;;;;;;;;;;14.40;96.40;;;;;;6120116;23;19917;-81
2022/09/24 07:45:22;;;;;;;;;;;14.30;96.30;;;;;;6119305;23;20003;-82
2022/09/24 07:47:55;;;;;;;;;;;14.20;96.40;;;;;;6096889;23;19948;-82
2022/09/24 07:50:22;;;;;;;;;;;14.30;96.20;;;;;;6119229;23;20326;-82
2022/09/24 07:52:49;;;;;;;;;;;14.30;96.30;;;;;;6097005;23;19921;-82
2022/09/24 07:55:17;;;;;;;;;;;14.30;96.00;;;;;;6094956;23;19988;-81
2022/09/24 07:57:47;;;;;;;;;;;14.30;95.80;;;;;;6119941;23;19997;-83
2022/09/24 08:00:14;;;;;;;;;;;14.30;96.40;;;;;;6118761;23;19917;-82
2022/09/24 08:02:41;;;;;;;;;;;14.30;97.20;;;;;;6119477;23;19992;-82
2022/09/24 08:05:08;;;;;;;;;;;14.20;96.70;;;;;;6118768;23;19984;-81
2022/09/24 08:07:35;;;;;;;;;;;14.20;96.40;;;;;;6096249;23;20251;-80
2022/09/24 08:10:02;;;;;;;;;;;14.20;96.20;;;;;;6119918;23;19988;-82
2022/09/24 08:12:29;;;;;;;;;;;14.20;95.60;;;;;;6096210;23;19989;-82
2022/09/24 08:14:56;;;;;;;;;;;14.20;95.40;;;;;;6094859;23;19945;-82
2022/09/24 08:17:22;;;;;;;;;;;14.20;95.60;;;;;;6118868;23;19917;-82
2022/09/24 08:19:51;;;;;;;;;;;14.20;95.70;;;;;;6119314;23;19923;-81
2022/09/24 08:22:17;;;;;;;;;;;14.20;95.40;;;;;;6118255;23;19928;-82
2022/09/24 08:24:44;;;;;;;;;;;14.20;95.10;;;;;;6119388;23;19921;-82
2022/09/24 08:27:11;;;;;;;;;;;14.20;95.00;;;;;;6118449;23;19931;-82
2022/09/24 08:29:42;;;;;;;;;;;14.20;95.50;;;;;;6118338;23;19917;-81
2022/09/24 08:32:09;;;;;;;;;;;14.20;95.60;;;;;;6118521;23;19943;-81
2022/09/24 08:34:39;;;;;;;;;;;14.20;96.20;;;;;;6095623;23;19921;-81
2022/09/24 08:37:07;;;;;;;;;;;14.30;96.40;;;;;;6119955;23;19921;-78
2022/09/24 08:39:34;;;;;;;;;;;14.30;96.60;;;;;;6095320;23;19917;-80
2022/09/24 08:42:01;;;;;;;;;;;14.30;96.20;;;;;;6120546;23;20361;-80
2022/09/24 08:47:25;;;;;;;;;;;14.40;96.60;;;;;;6095833;23;20251;-81
2022/09/24 08:50:08;;;;;;;;;;;14.50;96.60;;;;;;6119691;23;19949;-83
2022/09/24 08:52:40;;;;;;;;;;;14.40;96.30;;;;;;6118734;23;20279;-81
2022/09/24 08:55:20;;;;;;;;;;;14.50;95.80;;;;;;6119220;23;19924;-82
2022/09/24 08:58:07;;;;;;;;;;;14.50;95.80;;;;;;6118616;23;20334;-82
2022/09/24 09:00:37;;;;;;;;;;;14.50;96.00;;;;;;6084316;23;20327;-82
2022/09/24 09:03:11;;;;;;;;;;;14.40;96.50;;;;;;6096185;23;19948;-82
2022/09/24 09:05:45;;;;;;;;;;;14.50;96.70;;;;;;6118167;23;19921;-82
2022/09/24 09:08:33;;;;;;;;;;;14.50;95.80;;;;;;6118844;23;19921;-82
2022/09/24 09:11:23;;;;;;;;;;;14.50;96.20;;;;;;6095626;23;19963;-82
2022/09/24 09:13:59;;;;;;;;;;;14.50;95.80;;;;;;6119161;23;20305;-82
2022/09/24 09:16:28;;;;;;;;;;;14.50;95.90;;;;;;6118539;23;19944;-81
2022/09/24 09:18:59;;;;;;;;;;;14.50;95.70;;;;;;6118898;23;19944;-82
2022/09/24 09:21:29;;;;;;;;;;;14.50;95.60;;;;;;6094109;23;19988;-82
2022/09/24 09:23:58;;;;;;;;;;;14.50;95.20;;;;;;6119275;23;20496;-82
2022/09/24 09:26:26;;;;;;;;;;;14.50;94.90;;;;;;6095054;23;19995;-81
2022/09/24 09:28:56;;;;;;;;;;;14.50;94.80;;;;;;6119036;23;20315;-81
2022/09/24 09:31:23;;;;;;;;;;;14.40;95.50;;;;;;6117965;23;19992;-81
2022/09/24 09:34:16;;;;;;;;;;;14.30;95.70;;;;;;6118970;23;19917;-82
2022/09/24 09:37:02;;;;;;;;;;;14.10;95.70;;;;;;6090194;23;19917;-82
2022/09/24 09:39:28;;;;;;;;;;;14.20;95.90;;;;;;6118521;23;20275;-82
2022/09/24 09:42:00;;;;;;;;;;;14.20;95.90;;;;;;6118687;23;20261;-82
2022/09/24 09:44:28;;;;;;;;;;;14.20;96.30;;;;;;6093963;23;19916;-82
2022/09/24 09:47:15;;;;;;;;;;;14.20;96.20;;;;;;6119296;23;20661;-82
2022/09/24 09:49:42;;;;;;;;;;;14.30;96.10;;;;;;6118048;23;19936;-82
2022/09/24 09:52:14;;;;;;;;;;;14.20;97.10;;;;;;6118832;23;19969;-82
2022/09/24 09:54:42;;;;;;;;;;;14.10;96.60;;;;;;6118027;23;20254;-82
2022/09/24 09:57:13;;;;;;;;;;;14.20;96.50;;;;;;6118746;23;19941;-81
2022/09/24 09:59:40;;;;;;;;;;;14.10;96.20;;;;;;6118039;23;19948;-82
2022/09/24 10:02:22;;;;;;;;;;;14.10;96.10;;;;;;6119162;23;20385;-81
2022/09/24 10:04:51;;;;;;;;;;;14.10;94.60;;;;;;6093081;23;19920;-81
2022/09/24 10:07:18;;;;;;;;;;;14.10;94.20;;;;;;6118469;23;20334;-82
2022/09/24 10:09:56;;;;;;;;;;;14.00;93.80;;;;;;6118098;23;19921;-81
2022/09/24 10:12:23;;;;;;;;;;;14.00;94.50;;;;;;6095579;23;19917;-82
2022/09/24 10:14:57;;;;;;;;;;;14.00;95.50;;;;;;6095436;23;19950;-82
2022/09/24 10:17:26;;;;;;;;;;;14.00;95.80;;;;;;6118533;23;19962;-82
2022/09/24 10:19:54;;;;;;;;;;;14.10;95.70;;;;;;6118032;23;19924;-82
2022/09/24 10:22:23;;;;;;;;;;;14.20;96.50;;;;;;6093711;23;19921;-82
2022/09/24 10:24:51;;;;;;;;;;;14.10;96.20;;;;;;6107659;23;19928;-82
2022/09/24 10:27:23;;;;;;;;;;;14.20;95.90;;;;;;6118690;23;19917;-82
2022/09/24 10:32:39;;;;;;;;;;;14.10;96.10;;;;;;6093839;23;20258;-82
2022/09/24 10:35:20;;;;;;;;;;;14.00;92.80;;;;;;6118916;23;20261;-82
2022/09/24 10:37:51;;;;;;;;;;;14.00;93.90;;;;;;6117689;23;19956;-82
2022/09/24 10:40:22;;;;;;;;;;;14.00;94.10;;;;;;6118787;23;19944;-83
2022/09/24 10:42:56;;;;;;;;;;;14.10;94.30;;;;;;6117928;23;20349;-82
2022/09/24 10:45:24;;;;;;;;;;;14.10;94.40;;;;;;6119518;23;19996;-82
2022/09/24 10:48:03;;;;;;;;;;;14.20;93.90;;;;;;6119312;23;19921;-82
2022/09/24 10:50:37;;;;;;;;;;;14.20;93.70;;;;;;6120739;23;19968;-83
2022/09/24 10:53:12;;;;;;;;;;;14.30;94.50;;;;;;6095046;23;19968;-82
2022/09/24 10:55:48;;;;;;;;;;;14.30;93.80;;;;;;6120514;23;19917;-82
2022/09/24 10:58:22;;;;;;;;;;;14.30;93.50;;;;;;6095835;23;19984;-82
2022/09/24 11:00:56;;;;;;;;;;;14.30;93.60;;;;;;6095623;23;19986;-83
2022/09/24 11:03:41;;;;;;;;;;;14.30;93.60;;;;;;6119538;23;19920;-82
2022/09/24 11:06:20;;;;;;;;;;;14.30;93.90;;;;;;6119417;23;19923;-82
2022/09/24 11:08:56;;;;;;;;;;;14.30;93.60;;;;;;6097381;23;19917;-82
2022/09/24 11:11:35;;;;;;;;;;;14.40;94.00;;;;;;6119423;23;19992;-82
2022/09/24 11:14:14;;;;;;;;;;;14.40;94.00;;;;;;6119227;23;19925;-82
2022/09/24 11:16:53;;;;;;;;;;;14.30;94.60;;;;;;6097290;23;19988;-81
2022/09/24 11:19:20;;;;;;;;;;;14.30;95.20;;;;;;6118591;23;20004;-83
2022/09/24 11:21:56;;;;;;;;;;;14.40;95.10;;;;;;6096932;23;19917;-82
2022/09/24 11:24:23;;;;;;;;;;;14.40;95.20;;;;;;6119526;23;19997;-83
2022/09/24 11:26:56;;;;;;;;;;;14.30;95.20;;;;;;6119849;23;20330;-83
2022/09/24 11:29:33;;;;;;;;;;;14.30;95.70;;;;;;6119536;23;19992;-83
2022/09/24 11:32:05;;;;;;;;;;;14.30;96.30;;;;;;6118966;23;19972;-81
2022/09/24 11:34:38;;;;;;;;;;;14.20;96.00;;;;;;6097137;23;20012;-82
2022/09/24 11:37:08;;;;;;;;;;;14.20;96.00;;;;;;6119051;23;19917;-82
2022/09/24 11:39:34;;;;;;;;;;;14.30;96.10;;;;;;6120043;23;19992;-82
2022/09/24 11:42:30;;;;;;;;;;;14.30;96.10;;;;;;6119060;23;20000;-81
2022/09/24 11:45:00;;;;;;;;;;;14.20;96.40;;;;;;6093962;23;19921;-82
2022/09/24 11:47:30;;;;;;;;;;;14.20;97.10;;;;;;6119561;23;19941;-82
2022/09/24 11:49:57;;;;;;;;;;;14.20;96.60;;;;;;6120073;23;19921;-82
2022/09/24 11:52:26;;;;;;;;;;;14.20;95.70;;;;;;6096130;23;20238;-82
2022/09/24 11:54:59;;;;;;;;;;;14.30;95.80;;;;;;6120161;23;19917;-83
2022/09/24 11:57:32;;;;;;;;;;;14.30;95.60;;;;;;6119134;23;19927;-82
2022/09/24 12:00:07;;;;;;;;;;;14.40;95.60;;;;;;6119651;23;20254;-83
2022/09/24 12:02:36;;;;;;;;;;;14.40;95.50;;;;;;6119052;23;19941;-82
2022/09/24 12:05:26;;;;;;;;;;;14.50;95.70;;;;;;6119831;23;20350;-82
2022/09/24 12:08:02;;;;;;;;;;;14.40;95.90;;;;;;6083621;23;20287;-82
2022/09/24 12:10:36;;;;;;;;;;;14.40;95.50;;;;;;6118485;23;19954;-82
2022/09/24 12:13:17;;;;;;;;;;;14.40;95.50;;;;;;6119925;23;19917;-82
2022/09/24 12:15:46;;;;;;;;;;;14.40;95.00;;;;;;6118629;23;19949;-82
2022/09/24 12:18:16;;;;;;;;;;;14.40;95.00;;;;;;6119209;23;19917;-82
2022/09/24 12:20:51;;;;;;;;;;;14.50;94.90;;;;;;6094773;23;19987;-82
2022/09/24 12:23:21;;;;;;;;;;;14.40;94.90;;;;;;6119475;23;19921;-83
2022/09/24 12:25:52;;;;;;;;;;;14.50;95.40;;;;;;6118929;23;19937;-82
2022/09/24 12:34:25;;;;;;;;;;;14.60;95.10;;;;;;6096071;23;20219;-82
2022/09/24 12:37:12;;;;;;;;;;;14.60;95.20;;;;;;6119004;23;19992;-82
2022/09/24 12:39:50;;;;;;;;;;;14.50;95.60;;;;;;6094702;23;19939;-82
2022/09/24 12:42:19;;;;;;;;;;;14.60;95.90;;;;;;6118896;23;20000;-82
2022/09/24 12:44:49;;;;;;;;;;;14.70;95.80;;;;;;6119383;23;19936;-83
2022/09/24 12:47:18;;;;;;;;;;;14.70;95.90;;;;;;6118333;23;20007;-82
2022/09/24 12:49:56;;;;;;;;;;;14.80;95.80;;;;;;6119612;23;19941;-82
2022/09/24 12:52:24;;;;;;;;;;;14.70;95.30;;;;;;6118652;23;19939;-82
2022/09/24 12:54:58;;;;;;;;;;;14.70;95.10;;;;;;6119448;23;19944;-82
2022/09/24 12:57:27;;;;;;;;;;;14.60;94.20;;;;;;6118667;23;19947;-83
2022/09/24 13:00:02;;;;;;;;;;;14.60;94.80;;;;;;6119324;23;20228;-83
2022/09/24 13:02:33;;;;;;;;;;;14.50;95.00;;;;;;6118497;23;19927;-83
2022/09/24 13:04:59;;;;;;;;;;;14.50;95.30;;;;;;6118816;23;20254;-82
2022/09/24 13:07:33;;;;;;;;;;;14.50;94.80;;;;;;6117730;23;20331;-83
2022/09/24 13:10:17;;;;;;;;;;;14.40;95.10;;;;;;6119078;23;19924;-83
2022/09/24 13:12:44;;;;;;;;;;;14.50;95.20;;;;;;6118658;23;20335;-82
2022/09/24 13:15:30;;;;;;;;;;;14.50;95.20;;;;;;6119055;23;19992;-83
2022/09/24 13:18:03;;;;;;;;;;;14.40;95.30;;;;;;6118582;23;20338;-82
2022/09/24 13:20:31;;;;;;;;;;;14.40;95.10;;;;;;6119424;23;19917;-82
2022/09/24 13:23:18;;;;;;;;;;;14.40;95.00;;;;;;6118523;23;19997;-83
2022/09/24 13:25:58;;;;;;;;;;;14.40;95.00;;;;;;6084619;23;19944;-83
2022/09/24 13:28:26;;;;;;;;;;;14.40;95.30;;;;;;6119079;23;19960;-83
2022/09/24 13:31:24;;;;;;;;;;;14.30;95.40;;;;;;6116187;23;19972;-83
2022/09/24 13:34:09;;;;;;;;;;;14.30;95.50;;;;;;6118245;23;19921;-82
2022/09/24 13:36:56;;;;;;;;;;;14.20;96.20;;;;;;6119249;23;19932;-82
2022/09/24 13:39:26;;;;;;;;;;;14.00;96.20;;;;;;6118426;23;19924;-82
2022/09/24 13:42:12;;;;;;;;;;;14.00;96.90;;;;;;6119177;23;19944;-82
2022/09/24 13:44:40;;;;;;;;;;;14.10;96.70;;;;;;6118241;23;19976;-82
2022/09/24 13:47:23;;;;;;;;;;;14.10;96.80;;;;;;6118875;23;19917;-82
2022/09/24 13:49:51;;;;;;;;;;;14.10;96.90;;;;;;6118126;23;19940;-82
2022/09/24 13:52:27;;;;;;;;;;;14.10;97.10;;;;;;6119074;23;20000;-82
2022/09/24 13:54:55;;;;;;;;;;;14.10;97.30;;;;;;6118640;23;19951;-82
2022/09/24 13:57:24;;;;;;;;;;;14.10;97.40;;;;;;6118908;23;19944;-82
2022/09/24 14:00:10;;;;;;;;;;;14.10;97.30;;;;;;6093743;23;19928;-82
2022/09/24 14:02:38;;;;;;;;;;;14.10;97.50;;;;;;6118014;23;19952;-82
2022/09/24 14:05:08;;;;;;;;;;;14.10;97.50;;;;;;6118588;23;19936;-82
2022/09/24 14:07:35;;;;;;;;;;;14.10;97.60;;;;;;6118001;23;19996;-82
2022/09/24 14:10:06;;;;;;;;;;;14.10;97.50;;;;;;6118957;23;19925;-82
2022/09/24 14:12:33;;;;;;;;;;;14.10;97.50;;;;;;6113834;23;19985;-81
2022/09/24 14:15:03;;;;;;;;;;;14.10;96.90;;;;;;6118761;23;19941;-82
2022/09/24 14:17:30;;;;;;;;;;;14.00;97.20;;;;;;6118550;23;19924;-84
2022/09/24 14:19:57;;;;;;;;;;;14.00;97.80;;;;;;6109179;23;19952;-83
2022/09/24 14:22:30;;;;;;;;;;;14.00;98.10;;;;;;6121088;23;19917;-82
2022/09/24 14:25:02;;;;;;;;;;;13.90;98.10;;;;;;6117899;23;20319;-82
2022/09/24 14:27:38;;;;;;;;;;;14.00;98.00;;;;;;6119998;23;19988;-83
2022/09/24 14:30:07;;;;;;;;;;;14.10;97.70;;;;;;6114847;23;19948;-82
2022/09/24 14:32:35;;;;;;;;;;;14.10;97.30;;;;;;6118861;23;19923;-82
2022/09/24 14:35:07;;;;;;;;;;;14.20;97.40;;;;;;6119467;23;19984;-83
2022/09/24 14:37:36;;;;;;;;;;;14.20;97.70;;;;;;6119946;23;20000;-83
2022/09/24 14:40:10;;;;;;;;;;;14.20;97.80;;;;;;6119959;23;20000;-83
2022/09/24 14:42:39;;;;;;;;;;;14.30;97.50;;;;;;6106238;23;20402;-82
2022/09/24 14:45:08;;;;;;;;;;;14.40;97.40;;;;;;6094524;23;20323;-82
2022/09/24 14:47:36;;;;;;;;;;;14.40;97.80;;;;;;6118562;23;19917;-82
2022/09/24 14:50:23;;;;;;;;;;;14.40;97.90;;;;;;6117821;23;20330;-83